createdAt,value
2022-08-04T00:01:36.892Z,80.06
2022-08-04T00:04:31.414Z,80.03
2022-08-04T00:07:19.200Z,80.17
2022-08-04T00:10:27.967Z,80.45
2022-08-04T00:13:17.007Z,80.59
2022-08-04T00:15:46.203Z,80.45
2022-08-04T00:18:17.406Z,80.57
2022-08-04T00:20:46.552Z,80.32
2022-08-04T00:23:15.412Z,80.39
2022-08-04T00:25:44.848Z,80.23
2022-08-04T00:28:13.166Z,80.61
2022-08-04T00:30:43.030Z,80.75
2022-08-04T00:33:11.801Z,80.91
2022-08-04T00:35:40.600Z,80.90
2022-08-04T00:38:11.233Z,81.05
2022-08-04T00:40:44.826Z,81.06
2022-08-04T00:43:31.886Z,81.18
2022-08-04T00:46:16.685Z,81.20
2022-08-04T00:49:07.424Z,81.36
2022-08-04T00:51:41.721Z,81.58
2022-08-04T00:54:30.519Z,81.70
2022-08-04T00:57:33.556Z,81.90
2022-08-04T01:00:13.166Z,82.02
2022-08-04T01:02:56.286Z,82.09
2022-08-04T01:06:26.260Z,82.13
2022-08-04T01:09:09.106Z,82.30
2022-08-04T01:11:57.266Z,82.41
2022-08-04T01:14:44.742Z,82.21
2022-08-04T01:17:18.580Z,82.37
2022-08-04T01:20:08.478Z,82.38
2022-08-04T01:23:14.716Z,82.73
2022-08-04T01:25:51.240Z,83.05
2022-08-04T01:28:44.160Z,83.11
2022-08-04T01:31:35.217Z,83.15
2022-08-04T01:34:23.845Z,83.03
2022-08-04T01:37:11.205Z,82.94
2022-08-04T01:39:52.175Z,82.89
2022-08-04T01:43:00.013Z,82.78
2022-08-04T01:45:29.966Z,82.44
2022-08-04T01:47:58.231Z,82.40
2022-08-04T01:50:29.183Z,82.35
2022-08-04T01:52:57.453Z,82.51
2022-08-04T01:55:52.072Z,82.59
2022-08-04T01:58:19.606Z,82.69
2022-08-04T02:00:58.759Z,82.77
2022-08-04T02:04:20.113Z,82.99
2022-08-04T02:06:26.686Z,83.10
2022-08-04T02:09:06.325Z,83.17
2022-08-04T02:11:34.227Z,83.03
2022-08-04T02:14:45.693Z,82.66
2022-08-04T02:17:28.789Z,82.56
2022-08-04T02:20:12.650Z,82.62
2022-08-04T02:22:53.539Z,82.44
2022-08-04T02:25:29.890Z,82.67
2022-08-04T02:28:26.566Z,82.78
2022-08-04T02:31:08.801Z,82.87
2022-08-04T02:33:44.546Z,82.96
2022-08-04T02:36:26.631Z,82.87
2022-08-04T02:39:03.123Z,83.07
2022-08-04T02:41:32.666Z,83.46
2022-08-04T02:44:04.291Z,83.43
2022-08-04T02:46:34.805Z,83.57
2022-08-04T02:49:11.159Z,83.63
2022-08-04T02:51:45.249Z,83.71
2022-08-04T02:54:28.279Z,83.98
2022-08-04T02:57:04.597Z,83.97
2022-08-04T03:00:10.242Z,83.83
2022-08-04T03:03:03.567Z,83.74
2022-08-04T03:05:54.150Z,83.78
2022-08-04T03:08:52.706Z,83.69
2022-08-04T03:11:39.441Z,83.54
2022-08-04T03:14:40.409Z,83.46
2022-08-04T03:17:52.572Z,83.31
2022-08-04T03:20:45.669Z,83.21
2022-08-04T03:23:33.697Z,83.11
2022-08-04T03:26:40.692Z,82.84
2022-08-04T03:29:45.997Z,82.79
2022-08-04T03:32:19.736Z,82.78
2022-08-04T03:35:25.016Z,82.53
2022-08-04T03:38:28.195Z,82.32
2022-08-04T03:41:55.300Z,82.32
2022-08-04T03:44:40.921Z,82.16
2022-08-04T03:47:26.221Z,81.77
2022-08-04T03:50:31.636Z,81.57
2022-08-04T03:53:18.467Z,81.24
2022-08-04T03:55:48.986Z,81.17
2022-08-04T03:58:46.907Z,80.91
2022-08-04T04:02:02.094Z,80.99
2022-08-04T04:04:50.050Z,81.07
2022-08-04T04:07:35.836Z,80.93
2022-08-04T04:10:26.891Z,80.60
2022-08-04T04:12:57.166Z,80.33
2022-08-04T04:16:02.620Z,79.92
2022-08-04T04:19:07.685Z,79.78
2022-08-04T04:21:41.798Z,79.32
2022-08-04T04:24:43.675Z,78.74
2022-08-04T04:27:39.652Z,78.41
2022-08-04T04:30:11.620Z,77.47
2022-08-04T04:33:20.386Z,77.06
2022-08-04T04:36:19.617Z,77.12
2022-08-04T04:39:21.744Z,76.52
2022-08-04T04:42:26.442Z,75.49
2022-08-04T04:45:30.208Z,75.20
2022-08-04T04:48:11.073Z,74.82
2022-08-04T04:50:53.595Z,74.95
2022-08-04T04:53:47.584Z,74.27
2022-08-04T04:56:41.511Z,74.14
2022-08-04T04:59:33.199Z,73.60
2022-08-04T05:02:19.499Z,73.57
2022-08-04T05:05:29.725Z,73.45
2022-08-04T05:08:44.989Z,73.26
2022-08-04T05:11:11.659Z,73.04
2022-08-04T05:14:37.804Z,73.31
2022-08-04T05:16:40.744Z,73.03
2022-08-04T05:19:26.263Z,73.10
2022-08-04T05:22:14.246Z,72.69
2022-08-04T05:24:46.477Z,72.51
2022-08-04T05:27:28.792Z,72.25
2022-08-04T05:30:03.416Z,71.59
2022-08-04T05:32:42.420Z,71.25
2022-08-04T05:35:15.726Z,70.58
2022-08-04T05:38:08.378Z,70.37
2022-08-04T05:40:40.139Z,69.62
2022-08-04T05:43:09.825Z,68.28
2022-08-04T05:45:39.313Z,66.48
2022-08-04T05:48:10.215Z,64.12
2022-08-04T05:50:39.120Z,62.33
2022-08-04T05:53:10.582Z,61.52
2022-08-04T05:55:48.821Z,60.69
2022-08-04T05:58:31.855Z,60.28
2022-08-04T06:01:01.359Z,58.08
2022-08-04T06:03:32.154Z,57.11
2022-08-04T06:06:01.093Z,55.01
2022-08-04T06:08:30.548Z,54.22
2022-08-04T06:11:03.981Z,55.00
2022-08-04T06:13:47.643Z,54.74
2022-08-04T06:16:30.057Z,53.99
2022-08-04T06:20:03.562Z,54.25
2022-08-04T06:22:02.778Z,53.92
2022-08-04T06:24:36.276Z,53.84
2022-08-04T06:27:06.514Z,53.79
2022-08-04T06:29:38.785Z,53.32
2022-08-04T06:32:26.932Z,52.54
2022-08-04T06:35:06.736Z,51.75
2022-08-04T06:37:43.619Z,50.36
2022-08-04T06:40:30.759Z,51.25
2022-08-04T06:43:03.917Z,50.49
2022-08-04T06:45:40.218Z,49.98
2022-08-04T06:48:09.382Z,50.46
2022-08-04T06:51:24.435Z,50.60
2022-08-04T06:53:27.410Z,50.74
2022-08-04T06:55:58.222Z,48.85
2022-08-04T06:58:31.743Z,47.52
2022-08-04T07:01:02.364Z,45.69
2022-08-04T07:03:32.513Z,45.69
2022-08-04T07:06:06.051Z,45.92
2022-08-04T07:08:37.018Z,45.88
2022-08-04T07:11:05.981Z,46.26
2022-08-04T07:13:34.821Z,46.00
2022-08-04T07:16:03.575Z,45.44
2022-08-04T07:18:32.490Z,46.00
2022-08-04T07:21:04.142Z,45.83
2022-08-04T07:23:32.549Z,45.17
2022-08-04T07:26:12.030Z,45.48
2022-08-04T07:28:41.759Z,46.03
2022-08-04T07:31:32.029Z,44.55
2022-08-04T07:34:16.512Z,44.22
2022-08-04T07:36:53.104Z,43.89
2022-08-04T07:39:28.336Z,42.99
2022-08-04T07:42:01.552Z,44.40
2022-08-04T07:44:32.884Z,42.95
2022-08-04T07:47:02.912Z,43.02
2022-08-04T07:49:55.491Z,43.36
2022-08-04T07:52:21.035Z,43.94
2022-08-04T07:54:52.627Z,45.36
2022-08-04T07:57:40.131Z,45.80
2022-08-04T08:00:15.022Z,45.41
2022-08-04T08:02:45.861Z,45.28
2022-08-04T08:05:17.152Z,46.16
2022-08-04T08:07:50.719Z,46.14
2022-08-04T08:10:24.482Z,43.70
2022-08-04T08:12:53.823Z,42.04
2022-08-04T08:15:22.826Z,40.99
2022-08-04T08:17:58.227Z,40.81
2022-08-04T08:20:32.588Z,39.55
2022-08-04T08:23:02.439Z,38.83
2022-08-04T08:25:32.809Z,39.47
2022-08-04T08:28:03.944Z,38.92
2022-08-04T08:30:33.646Z,38.11
2022-08-04T08:33:08.169Z,38.04
2022-08-04T08:36:03.900Z,37.97
2022-08-04T08:38:34.837Z,37.44
2022-08-04T08:41:40.565Z,38.41
2022-08-04T08:44:37.560Z,38.84
2022-08-04T08:48:06.006Z,38.91
2022-08-04T08:50:55.616Z,38.36
2022-08-04T08:53:57.699Z,38.17
2022-08-04T08:56:34.920Z,36.84
2022-08-04T08:59:22.766Z,36.62
2022-08-04T09:01:53.814Z,35.86
2022-08-04T09:04:35.700Z,36.25
2022-08-04T09:07:28.560Z,35.58
2022-08-04T09:10:25.335Z,35.50
2022-08-04T09:12:59.780Z,35.54
2022-08-04T09:15:42.066Z,35.09
2022-08-04T09:18:19.363Z,33.86
2022-08-04T09:20:56.786Z,33.64
2022-08-04T09:24:36.469Z,33.48
2022-08-04T09:27:16.061Z,32.48
2022-08-04T09:29:53.740Z,32.31
2022-08-04T09:32:33.259Z,31.35
2022-08-04T09:35:15.601Z,31.54
2022-08-04T09:38:12.161Z,31.99
2022-08-04T09:41:26.877Z,32.77
2022-08-04T09:44:50.265Z,32.83
2022-08-04T09:47:39.385Z,32.81
2022-08-04T09:50:34.155Z,32.30
2022-08-04T09:53:27.424Z,31.98
2022-08-04T09:56:10.060Z,33.19
2022-08-04T09:59:12.298Z,34.61
2022-08-04T10:01:42.708Z,34.15
2022-08-04T10:04:20.123Z,32.87
2022-08-04T10:07:01.026Z,30.64
2022-08-04T10:09:43.821Z,30.08
2022-08-04T10:12:24.069Z,28.99
2022-08-04T10:15:12.082Z,29.73
2022-08-04T10:17:55.196Z,29.67
2022-08-04T10:20:53.065Z,30.25
2022-08-04T10:23:26.775Z,30.51
2022-08-04T10:26:13.019Z,30.85
2022-08-04T10:28:55.659Z,32.06
2022-08-04T10:31:29.666Z,32.71
2022-08-04T10:34:11.981Z,34.28
2022-08-04T10:37:20.614Z,33.64
2022-08-04T10:40:13.072Z,32.47
2022-08-04T10:42:54.158Z,32.14
2022-08-04T10:45:29.475Z,31.66
2022-08-04T10:48:14.482Z,29.83
2022-08-04T10:50:55.402Z,29.27
2022-08-04T10:53:37.824Z,29.00
2022-08-04T10:56:30.516Z,30.25
2022-08-04T10:59:04.769Z,30.50
2022-08-04T11:01:50.573Z,31.43
2022-08-04T11:04:46.998Z,32.26
2022-08-04T11:07:17.740Z,31.13
2022-08-04T11:09:46.932Z,29.38
2022-08-04T11:12:21.492Z,28.31
2022-08-04T11:15:05.327Z,28.45
2022-08-04T11:17:38.747Z,28.98
2022-08-04T11:20:36.975Z,28.25
2022-08-04T11:23:14.281Z,28.88
2022-08-04T11:26:03.766Z,28.77
2022-08-04T11:29:04.063Z,28.23
2022-08-04T11:31:36.838Z,26.97
2022-08-04T11:34:18.321Z,25.86
2022-08-04T11:36:52.126Z,25.19
2022-08-04T11:39:38.577Z,24.94
2022-08-04T11:42:21.096Z,24.34
2022-08-04T11:45:07.201Z,25.42
2022-08-04T11:47:40.508Z,26.28
2022-08-04T11:50:11.719Z,26.73
2022-08-04T11:52:43.523Z,26.88
2022-08-04T11:55:16.799Z,28.15
2022-08-04T11:57:45.282Z,26.81
2022-08-04T12:00:23.011Z,25.81
2022-08-04T12:03:04.767Z,24.32
2022-08-04T12:05:37.939Z,24.20
2022-08-04T12:08:52.044Z,22.61
2022-08-04T12:11:57.940Z,22.89
2022-08-04T12:14:41.556Z,25.20
2022-08-04T12:17:13.566Z,27.49
2022-08-04T12:20:03.813Z,28.64
2022-08-04T12:22:41.816Z,26.72
2022-08-04T12:25:16.702Z,24.68
2022-08-04T12:27:59.886Z,24.46
2022-08-04T12:31:01.475Z,24.65
2022-08-04T12:33:41.254Z,23.21
2022-08-04T12:36:45.732Z,23.10
2022-08-04T12:39:20.855Z,22.96
2022-08-04T12:41:55.725Z,22.93
2022-08-04T12:44:37.877Z,22.48
2022-08-04T12:47:26.806Z,20.78
2022-08-04T12:50:07.270Z,20.54
2022-08-04T12:53:03.517Z,21.60
2022-08-04T12:55:35.637Z,21.11
2022-08-04T12:58:13.576Z,22.26
2022-08-04T13:00:51.487Z,22.73
2022-08-04T13:03:24.035Z,23.19
2022-08-04T13:05:55.739Z,23.01
2022-08-04T13:08:36.384Z,23.11
2022-08-04T13:11:05.501Z,22.80
2022-08-04T13:13:37.166Z,22.83
2022-08-04T13:16:13.095Z,22.31
2022-08-04T13:18:51.215Z,23.07
2022-08-04T13:21:23.109Z,24.61
2022-08-04T13:24:22.861Z,24.41
2022-08-04T13:27:09.550Z,23.50
2022-08-04T13:29:57.818Z,23.77
2022-08-04T13:32:30.630Z,23.99
2022-08-04T13:35:02.217Z,23.21
2022-08-04T13:37:37.417Z,23.58
2022-08-04T13:40:09.933Z,23.90
2022-08-04T13:42:40.630Z,23.45
2022-08-04T13:45:10.163Z,22.98
2022-08-04T13:47:40.474Z,23.01
2022-08-04T13:50:27.440Z,22.98
2022-08-04T13:53:01.469Z,22.00
2022-08-04T13:55:33.566Z,22.56
2022-08-04T13:58:05.415Z,22.67
2022-08-04T14:00:52.104Z,22.71
2022-08-04T14:03:53.818Z,22.76
2022-08-04T14:06:27.172Z,21.77
2022-08-04T14:09:10.385Z,22.61
2022-08-04T14:12:07.552Z,22.74
2022-08-04T14:14:47.587Z,22.79
2022-08-04T14:17:30.499Z,22.72
2022-08-04T14:20:04.789Z,22.64
2022-08-04T14:22:35.615Z,22.57
2022-08-04T14:25:04.726Z,21.71
2022-08-04T14:27:43.626Z,22.54
2022-08-04T14:30:31.778Z,22.83
2022-08-04T14:34:01.794Z,22.73
2022-08-04T14:36:03.839Z,23.84
2022-08-04T14:38:54.689Z,23.44
2022-08-04T14:41:30.281Z,23.10
2022-08-04T14:44:02.352Z,23.35
2022-08-04T14:46:36.652Z,22.87
2022-08-04T14:49:10.447Z,21.93
2022-08-04T14:51:43.708Z,22.03
2022-08-04T14:54:18.351Z,22.63
2022-08-04T14:57:04.891Z,22.36
2022-08-04T14:59:59.488Z,22.92
2022-08-04T15:02:32.813Z,23.99
2022-08-04T15:06:02.266Z,23.26
2022-08-04T15:07:52.767Z,22.93
2022-08-04T15:10:21.635Z,21.55
2022-08-04T15:12:49.950Z,20.78
2022-08-04T15:15:36.051Z,19.97
2022-08-04T15:18:11.481Z,20.13
2022-08-04T15:20:42.864Z,19.48
2022-08-04T15:23:11.142Z,18.53
2022-08-04T15:25:48.372Z,18.15
2022-08-04T15:28:20.463Z,17.60
2022-08-04T15:30:54.355Z,17.98
2022-08-04T15:33:28.973Z,17.70
2022-08-04T15:36:37.306Z,17.24
2022-08-04T15:39:27.309Z,17.35
2022-08-04T15:42:21.651Z,18.34
2022-08-04T15:45:12.623Z,18.89
2022-08-04T15:47:41.408Z,18.71
2022-08-04T15:50:28.489Z,18.19
2022-08-04T15:53:00.924Z,18.00
2022-08-04T15:55:39.911Z,17.48
2022-08-04T15:58:09.874Z,18.25
2022-08-04T16:00:49.938Z,18.56
2022-08-04T16:03:54.263Z,17.93
2022-08-04T16:06:41.703Z,17.62
2022-08-04T16:09:23.714Z,17.70
2022-08-04T16:11:52.688Z,18.42
2022-08-04T16:14:33.970Z,19.02
2022-08-04T16:17:20.049Z,21.23
2022-08-04T16:20:04.479Z,23.78
2022-08-04T16:22:36.091Z,25.77
2022-08-04T16:25:24.691Z,27.26
2022-08-04T16:27:53.058Z,28.44
2022-08-04T16:30:21.198Z,29.25
2022-08-04T16:32:49.455Z,30.10
2022-08-04T16:35:27.287Z,30.11
2022-08-04T16:38:13.444Z,30.55
2022-08-04T16:40:46.057Z,30.51
2022-08-04T16:43:19.420Z,31.25
2022-08-04T16:45:49.096Z,31.70
2022-08-04T16:48:29.109Z,31.99
2022-08-04T16:51:05.314Z,32.44
2022-08-04T16:54:03.104Z,32.42
2022-08-04T16:56:35.638Z,33.00
2022-08-04T16:59:09.950Z,33.38
2022-08-04T17:01:49.875Z,33.53
2022-08-04T17:04:18.555Z,34.17
2022-08-04T17:06:46.996Z,34.35
2022-08-04T17:09:19.756Z,34.54
2022-08-04T17:11:48.595Z,34.84
2022-08-04T17:14:23.024Z,35.16
2022-08-04T17:16:52.461Z,34.89
2022-08-04T17:19:26.042Z,35.00
2022-08-04T17:22:05.973Z,35.39
2022-08-04T17:24:37.121Z,36.79
2022-08-04T17:28:09.511Z,36.22
2022-08-04T17:29:55.569Z,36.41
2022-08-04T17:32:24.432Z,37.12
2022-08-04T17:35:01.579Z,37.55
2022-08-04T17:37:39.867Z,37.59
2022-08-04T17:40:18.303Z,37.71
2022-08-04T17:44:04.526Z,38.00
2022-08-04T17:46:14.523Z,38.86
2022-08-04T17:48:43.031Z,39.37
2022-08-04T17:51:21.819Z,39.64
2022-08-04T17:54:11.837Z,40.94
2022-08-04T17:59:52.886Z,43.32
2022-08-04T18:02:33.373Z,44.50
2022-08-04T18:05:07.411Z,44.95
2022-08-04T18:10:51.868Z,45.64
2022-08-04T18:13:23.753Z,46.65
2022-08-04T18:16:03.056Z,47.12
2022-08-04T18:18:31.840Z,46.85
2022-08-04T18:21:03.496Z,47.10
2022-08-04T18:23:33.518Z,47.86
2022-08-04T18:26:03.749Z,47.96
2022-08-04T18:28:33.471Z,48.35
2022-08-04T18:31:05.065Z,49.06
2022-08-04T18:33:40.366Z,49.82
2022-08-04T18:36:34.877Z,50.12
2022-08-04T18:39:13.082Z,49.74
2022-08-04T18:42:00.941Z,50.68
2022-08-04T18:44:32.657Z,50.77
2022-08-04T18:47:29.975Z,51.02
2022-08-04T18:50:59.221Z,51.33
2022-08-04T18:52:53.006Z,52.00
2022-08-04T18:58:11.821Z,52.71
2022-08-04T19:00:45.872Z,52.78
2022-08-04T19:03:16.316Z,52.62
2022-08-04T19:05:51.637Z,52.54
2022-08-04T19:11:37.082Z,52.09
2022-08-04T19:13:58.199Z,52.16
2022-08-04T19:16:28.717Z,52.03
2022-08-04T19:18:58.755Z,52.65
2022-08-04T19:21:58.727Z,53.33
2022-08-04T19:24:28.469Z,53.35
2022-08-04T19:26:59.178Z,53.66
2022-08-04T19:29:37.600Z,53.69
2022-08-04T19:32:15.212Z,53.78
2022-08-04T19:34:47.469Z,53.90
2022-08-04T19:37:58.031Z,54.57
2022-08-04T19:40:09.523Z,55.49
2022-08-04T19:42:40.363Z,55.90
2022-08-04T19:45:15.364Z,56.26
2022-08-04T19:48:15.848Z,56.62
2022-08-04T19:50:34.826Z,56.83
2022-08-04T19:53:04.246Z,56.77
2022-08-04T19:55:49.424Z,56.14
2022-08-04T19:58:21.581Z,55.85
2022-08-04T20:00:55.532Z,56.37
2022-08-04T20:04:09.174Z,56.59
2022-08-04T20:06:15.365Z,56.60
2022-08-04T20:08:48.573Z,57.11
2022-08-04T20:11:18.450Z,57.12
2022-08-04T20:13:54.663Z,56.71
2022-08-04T20:16:29.526Z,56.68
2022-08-04T20:19:03.646Z,57.00
2022-08-04T20:21:53.543Z,56.97
2022-08-04T20:24:38.875Z,56.21
2022-08-04T20:27:15.368Z,56.72
2022-08-04T20:29:49.437Z,56.41
2022-08-04T20:32:22.096Z,56.52
2022-08-04T20:34:52.731Z,56.87
2022-08-04T20:37:25.261Z,57.44
2022-08-04T20:39:58.873Z,57.84
2022-08-04T20:42:33.708Z,57.81
2022-08-04T20:45:02.646Z,58.37
2022-08-04T20:47:35.518Z,58.63
2022-08-04T20:50:08.969Z,59.29
2022-08-04T20:52:56.459Z,59.74
2022-08-04T20:55:29.649Z,60.46
2022-08-04T20:58:02.958Z,61.18
2022-08-04T21:00:32.376Z,61.73
2022-08-04T21:03:00.795Z,62.40
2022-08-04T21:05:29.257Z,62.77
2022-08-04T21:07:59.732Z,62.88
2022-08-04T21:10:28.117Z,63.03
2022-08-04T21:12:56.326Z,63.48
2022-08-04T21:15:26.463Z,63.95
2022-08-04T21:18:14.626Z,64.31
2022-08-04T21:20:48.332Z,64.45
2022-08-04T21:23:16.688Z,64.58
2022-08-04T21:25:51.080Z,64.44
2022-08-04T21:28:20.276Z,64.84
2022-08-04T21:30:53.182Z,65.00
2022-08-04T21:33:36.097Z,65.34
2022-08-04T21:36:13.837Z,65.80
2022-08-04T21:38:51.266Z,66.54
2022-08-04T21:44:10.056Z,67.67
2022-08-04T21:46:44.363Z,67.88
2022-08-04T21:49:12.911Z,67.87
2022-08-04T21:51:58.347Z,67.95
2022-08-04T21:54:29.036Z,68.16
2022-08-04T21:56:57.279Z,68.42
2022-08-04T21:59:30.541Z,68.69
2022-08-04T22:02:01.576Z,68.84
2022-08-04T22:04:31.028Z,69.08
2022-08-04T22:07:03.105Z,69.57
2022-08-04T22:09:38.795Z,69.86
2022-08-04T22:12:12.520Z,70.24
2022-08-04T22:14:40.917Z,70.54
2022-08-04T22:17:13.455Z,70.87
2022-08-04T22:19:55.398Z,71.15
2022-08-04T22:22:29.644Z,71.47
2022-08-04T22:25:06.265Z,71.45
2022-08-04T22:28:02.649Z,71.60
2022-08-04T22:30:37.725Z,71.96
2022-08-04T22:33:08.916Z,71.99
2022-08-04T22:35:44.320Z,72.36
2022-08-04T22:38:20.838Z,72.56
2022-08-04T22:41:03.899Z,72.53
2022-08-04T22:43:34.658Z,72.83
2022-08-04T22:46:08.855Z,72.99
2022-08-04T22:48:43.525Z,73.19
2022-08-04T22:51:13.259Z,73.40
2022-08-04T22:53:48.730Z,73.62
2022-08-04T22:56:37.394Z,73.65
2022-08-04T22:59:11.400Z,74.04
2022-08-04T23:01:59.060Z,73.88
2022-08-04T23:04:32.683Z,74.27
2022-08-04T23:07:09.218Z,74.20
2022-08-04T23:09:50.333Z,74.45
2022-08-04T23:12:26.549Z,74.48
2022-08-04T23:14:57.540Z,74.58
2022-08-04T23:17:28.523Z,74.72
2022-08-04T23:19:59.573Z,74.85
2022-08-04T23:22:36.993Z,75.08
2022-08-04T23:25:16.561Z,75.13
2022-08-04T23:27:50.980Z,75.48
2022-08-04T23:30:24.767Z,75.68
2022-08-04T23:32:59.046Z,75.93
2022-08-04T23:35:27.576Z,76.04
2022-08-04T23:37:57.308Z,76.38
2022-08-04T23:40:34.269Z,76.35
2022-08-04T23:43:13.471Z,76.84
2022-08-04T23:46:04.255Z,77.02
2022-08-04T23:48:38.840Z,77.55
2022-08-04T23:51:14.468Z,77.37
2022-08-04T23:54:02.281Z,77.54
2022-08-04T23:56:35.874Z,77.81
2022-08-04T23:59:06.326Z,77.89
